Terminal Aerodrome Forecast
Issued by NWS

Home | Current Version | Previous Version | Text Only | Print | Product List | Glossary On
Versions: 1 2 3 4 5 6 7 8 9 10 11 12
341
FTUS42 TJSJ 300520
TAFJPS
TAF
TJPS 300520Z 3006/3106 00000KT P6SM FEW030
     FM301300 18010KT P6SM VCSH FEW030 SCT060
     FM302330 09007KT P6SM FEW025 SCT050=

USA.gov is the U.S. government's official web portal to all federal, state and local government web resources and services.